sensor_id;sensor_type;location;lat;lon;timestamp;P1;durP1;ratioP1;P2;durP2;ratioP2
11211;SDS011;5663;50.864;12.096;2022-09-13T00:01:38;5.53;;;3.87;;
11211;SDS011;5663;50.864;12.096;2022-09-13T00:04:18;4.37;;;3.97;;
11211;SDS011;5663;50.864;12.096;2022-09-13T00:07:12;7.87;;;4.83;;
11211;SDS011;5663;50.864;12.096;2022-09-13T00:09:54;7.47;;;5.00;;
11211;SDS011;5663;50.864;12.096;2022-09-13T00:12:29;6.23;;;4.90;;
11211;SDS011;5663;50.864;12.096;2022-09-13T00:15:31;7.40;;;4.93;;
11211;SDS011;5663;50.864;12.096;2022-09-13T00:25:50;7.83;;;5.27;;
11211;SDS011;5663;50.864;12.096;2022-09-13T00:29:00;5.43;;;4.20;;
11211;SDS011;5663;50.864;12.096;2022-09-13T00:32:23;5.93;;;4.07;;
11211;SDS011;5663;50.864;12.096;2022-09-13T00:35:06;5.43;;;4.70;;
11211;SDS011;5663;50.864;12.096;2022-09-13T00:41:36;7.83;;;4.83;;
11211;SDS011;5663;50.864;12.096;2022-09-13T00:47:40;4.57;;;4.00;;
11211;SDS011;5663;50.864;12.096;2022-09-13T00:53:34;5.17;;;4.13;;
11211;SDS011;5663;50.864;12.096;2022-09-13T00:56:14;4.00;;;3.37;;
11211;SDS011;5663;50.864;12.096;2022-09-13T00:59:18;4.40;;;4.00;;
11211;SDS011;5663;50.864;12.096;2022-09-13T01:01:55;5.93;;;4.37;;
11211;SDS011;5663;50.864;12.096;2022-09-13T01:04:34;7.33;;;4.60;;
11211;SDS011;5663;50.864;12.096;2022-09-13T01:07:06;12.90;;;4.83;;
11211;SDS011;5663;50.864;12.096;2022-09-13T01:09:42;6.30;;;4.83;;
11211;SDS011;5663;50.864;12.096;2022-09-13T01:12:32;7.13;;;4.57;;
11211;SDS011;5663;50.864;12.096;2022-09-13T01:18:49;8.47;;;5.40;;
11211;SDS011;5663;50.864;12.096;2022-09-13T01:21:27;5.00;;;3.60;;
11211;SDS011;5663;50.864;12.096;2022-09-13T01:27:44;4.60;;;3.77;;
11211;SDS011;5663;50.864;12.096;2022-09-13T01:31:04;5.30;;;4.60;;
11211;SDS011;5663;50.864;12.096;2022-09-13T01:33:39;4.73;;;4.00;;
11211;SDS011;5663;50.864;12.096;2022-09-13T01:36:25;8.07;;;5.30;;
11211;SDS011;5663;50.864;12.096;2022-09-13T01:39:08;7.50;;;4.97;;
11211;SDS011;5663;50.864;12.096;2022-09-13T01:41:48;6.37;;;4.30;;
11211;SDS011;5663;50.864;12.096;2022-09-13T01:44:36;6.87;;;4.43;;
11211;SDS011;5663;50.864;12.096;2022-09-13T01:47:36;5.17;;;4.50;;
11211;SDS011;5663;50.864;12.096;2022-09-13T01:50:28;11.07;;;5.70;;
11211;SDS011;5663;50.864;12.096;2022-09-13T01:53:08;6.53;;;5.20;;
11211;SDS011;5663;50.864;12.096;2022-09-13T01:55:50;8.23;;;5.77;;
11211;SDS011;5663;50.864;12.096;2022-09-13T01:58:33;5.07;;;4.57;;
11211;SDS011;5663;50.864;12.096;2022-09-13T02:01:14;6.73;;;5.30;;
11211;SDS011;5663;50.864;12.096;2022-09-13T02:04:13;6.17;;;5.57;;
11211;SDS011;5663;50.864;12.096;2022-09-13T02:10:41;7.77;;;6.60;;
11211;SDS011;5663;50.864;12.096;2022-09-13T02:16:39;11.27;;;7.27;;
11211;SDS011;5663;50.864;12.096;2022-09-13T02:19:15;10.27;;;7.20;;
11211;SDS011;5663;50.864;12.096;2022-09-13T02:21:49;8.27;;;5.50;;
11211;SDS011;5663;50.864;12.096;2022-09-13T02:24:23;10.37;;;7.20;;
11211;SDS011;5663;50.864;12.096;2022-09-13T02:26:56;8.87;;;7.30;;
11211;SDS011;5663;50.864;12.096;2022-09-13T02:29:30;8.00;;;7.00;;
11211;SDS011;5663;50.864;12.096;2022-09-13T02:32:03;7.67;;;6.37;;
11211;SDS011;5663;50.864;12.096;2022-09-13T02:38:29;7.03;;;5.73;;
11211;SDS011;5663;50.864;12.096;2022-09-13T02:41:29;7.73;;;6.83;;
11211;SDS011;5663;50.864;12.096;2022-09-13T02:44:17;6.50;;;5.60;;
11211;SDS011;5663;50.864;12.096;2022-09-13T02:47:00;11.37;;;7.43;;
11211;SDS011;5663;50.864;12.096;2022-09-13T02:50:21;6.33;;;5.73;;
11211;SDS011;5663;50.864;12.096;2022-09-13T02:53:04;9.13;;;6.97;;
11211;SDS011;5663;50.864;12.096;2022-09-13T02:55:47;6.47;;;5.80;;
11211;SDS011;5663;50.864;12.096;2022-09-13T02:58:24;7.27;;;6.03;;
11211;SDS011;5663;50.864;12.096;2022-09-13T03:01:01;7.17;;;6.40;;
11211;SDS011;5663;50.864;12.096;2022-09-13T03:03:31;9.77;;;7.13;;
11211;SDS011;5663;50.864;12.096;2022-09-13T03:06:22;9.47;;;7.67;;
11211;SDS011;5663;50.864;12.096;2022-09-13T03:08:57;10.30;;;7.13;;
11211;SDS011;5663;50.864;12.096;2022-09-13T03:11:38;10.83;;;7.10;;
11211;SDS011;5663;50.864;12.096;2022-09-13T03:14:30;12.03;;;6.97;;
11211;SDS011;5663;50.864;12.096;2022-09-13T03:17:07;20.17;;;7.43;;
11211;SDS011;5663;50.864;12.096;2022-09-13T03:19:52;13.07;;;7.83;;
11211;SDS011;5663;50.864;12.096;2022-09-13T03:22:50;9.23;;;6.33;;
11211;SDS011;5663;50.864;12.096;2022-09-13T03:25:42;7.97;;;6.30;;
11211;SDS011;5663;50.864;12.096;2022-09-13T03:29:12;8.50;;;6.50;;
11211;SDS011;5663;50.864;12.096;2022-09-13T03:32:11;12.03;;;6.90;;
11211;SDS011;5663;50.864;12.096;2022-09-13T03:35:23;8.57;;;7.40;;
11211;SDS011;5663;50.864;12.096;2022-09-13T03:37:59;10.20;;;7.37;;
11211;SDS011;5663;50.864;12.096;2022-09-13T03:40:44;8.03;;;6.20;;
11211;SDS011;5663;50.864;12.096;2022-09-13T03:43:20;8.13;;;6.43;;
11211;SDS011;5663;50.864;12.096;2022-09-13T03:46:01;7.00;;;6.30;;
11211;SDS011;5663;50.864;12.096;2022-09-13T03:48:36;13.13;;;6.60;;
11211;SDS011;5663;50.864;12.096;2022-09-13T03:54:07;8.77;;;5.27;;
11211;SDS011;5663;50.864;12.096;2022-09-13T04:00:29;6.83;;;6.00;;
11211;SDS011;5663;50.864;12.096;2022-09-13T04:03:01;9.53;;;6.10;;
11211;SDS011;5663;50.864;12.096;2022-09-13T04:05:37;9.47;;;7.07;;
11211;SDS011;5663;50.864;12.096;2022-09-13T04:11:24;10.23;;;7.37;;
11211;SDS011;5663;50.864;12.096;2022-09-13T04:13:56;9.47;;;7.33;;
11211;SDS011;5663;50.864;12.096;2022-09-13T04:16:26;9.10;;;7.53;;
11211;SDS011;5663;50.864;12.096;2022-09-13T04:19:01;8.07;;;6.70;;
11211;SDS011;5663;50.864;12.096;2022-09-13T04:21:33;11.47;;;7.37;;
11211;SDS011;5663;50.864;12.096;2022-09-13T04:24:04;14.40;;;7.10;;
11211;SDS011;5663;50.864;12.096;2022-09-13T04:26:38;9.37;;;7.50;;
11211;SDS011;5663;50.864;12.096;2022-09-13T04:32:01;9.07;;;6.43;;
11211;SDS011;5663;50.864;12.096;2022-09-13T04:34:36;9.90;;;7.17;;
11211;SDS011;5663;50.864;12.096;2022-09-13T04:37:11;9.87;;;6.30;;
11211;SDS011;5663;50.864;12.096;2022-09-13T04:39:41;8.07;;;6.80;;
11211;SDS011;5663;50.864;12.096;2022-09-13T04:42:12;12.40;;;6.40;;
11211;SDS011;5663;50.864;12.096;2022-09-13T04:44:45;9.70;;;7.20;;
11211;SDS011;5663;50.864;12.096;2022-09-13T04:47:17;10.23;;;7.37;;
11211;SDS011;5663;50.864;12.096;2022-09-13T04:50:01;9.47;;;6.90;;
11211;SDS011;5663;50.864;12.096;2022-09-13T04:52:37;9.87;;;7.70;;
11211;SDS011;5663;50.864;12.096;2022-09-13T04:56:04;10.30;;;6.40;;
11211;SDS011;5663;50.864;12.096;2022-09-13T04:58:39;16.20;;;7.77;;
11211;SDS011;5663;50.864;12.096;2022-09-13T05:01:08;10.23;;;8.37;;
11211;SDS011;5663;50.864;12.096;2022-09-13T05:06:37;28.43;;;9.87;;
11211;SDS011;5663;50.864;12.096;2022-09-13T05:09:09;10.27;;;8.20;;
11211;SDS011;5663;50.864;12.096;2022-09-13T05:11:59;9.57;;;8.47;;
11211;SDS011;5663;50.864;12.096;2022-09-13T05:17:32;12.83;;;8.10;;
11211;SDS011;5663;50.864;12.096;2022-09-13T05:20:03;12.43;;;8.93;;
11211;SDS011;5663;50.864;12.096;2022-09-13T05:22:42;10.63;;;8.67;;
11211;SDS011;5663;50.864;12.096;2022-09-13T05:25:38;22.27;;;8.57;;
11211;SDS011;5663;50.864;12.096;2022-09-13T05:28:23;14.57;;;9.13;;
11211;SDS011;5663;50.864;12.096;2022-09-13T05:31:47;12.93;;;9.70;;
11211;SDS011;5663;50.864;12.096;2022-09-13T05:34:24;15.13;;;8.97;;
11211;SDS011;5663;50.864;12.096;2022-09-13T05:36:57;13.17;;;9.57;;
11211;SDS011;5663;50.864;12.096;2022-09-13T05:43:19;14.60;;;10.23;;
11211;SDS011;5663;50.864;12.096;2022-09-13T05:50:43;11.30;;;7.53;;
11211;SDS011;5663;50.864;12.096;2022-09-13T05:53:45;11.13;;;8.73;;
11211;SDS011;5663;50.864;12.096;2022-09-13T05:57:17;13.83;;;8.30;;
11211;SDS011;5663;50.864;12.096;2022-09-13T06:00:19;10.10;;;8.57;;
11211;SDS011;5663;50.864;12.096;2022-09-13T06:03:24;17.57;;;9.63;;
11211;SDS011;5663;50.864;12.096;2022-09-13T06:06:38;54.57;;;10.37;;
11211;SDS011;5663;50.864;12.096;2022-09-13T06:09:25;15.17;;;8.27;;
11211;SDS011;5663;50.864;12.096;2022-09-13T06:15:27;13.27;;;8.23;;
11211;SDS011;5663;50.864;12.096;2022-09-13T06:18:25;20.13;;;7.93;;
11211;SDS011;5663;50.864;12.096;2022-09-13T06:21:48;12.17;;;9.23;;
11211;SDS011;5663;50.864;12.096;2022-09-13T06:24:54;12.47;;;8.80;;
11211;SDS011;5663;50.864;12.096;2022-09-13T06:27:45;18.00;;;8.33;;
11211;SDS011;5663;50.864;12.096;2022-09-13T06:33:46;11.23;;;8.23;;
11211;SDS011;5663;50.864;12.096;2022-09-13T06:37:13;12.63;;;8.90;;
11211;SDS011;5663;50.864;12.096;2022-09-13T06:40:13;15.27;;;9.03;;
11211;SDS011;5663;50.864;12.096;2022-09-13T06:42:55;15.73;;;9.07;;
11211;SDS011;5663;50.864;12.096;2022-09-13T06:53:36;13.07;;;8.37;;
11211;SDS011;5663;50.864;12.096;2022-09-13T06:56:14;11.30;;;8.90;;
11211;SDS011;5663;50.864;12.096;2022-09-13T07:02:37;9.83;;;7.33;;
11211;SDS011;5663;50.864;12.096;2022-09-13T07:05:18;11.43;;;8.00;;
11211;SDS011;5663;50.864;12.096;2022-09-13T07:08:51;8.77;;;7.23;;
11211;SDS011;5663;50.864;12.096;2022-09-13T07:11:36;40.23;;;8.83;;
11211;SDS011;5663;50.864;12.096;2022-09-13T07:14:49;10.07;;;7.57;;
11211;SDS011;5663;50.864;12.096;2022-09-13T07:17:22;9.93;;;6.63;;
11211;SDS011;5663;50.864;12.096;2022-09-13T07:20:31;8.33;;;6.53;;
11211;SDS011;5663;50.864;12.096;2022-09-13T07:23:11;8.90;;;6.60;;
11211;SDS011;5663;50.864;12.096;2022-09-13T07:33:01;10.30;;;6.40;;
11211;SDS011;5663;50.864;12.096;2022-09-13T07:38:58;9.13;;;7.13;;
11211;SDS011;5663;50.864;12.096;2022-09-13T07:42:11;12.27;;;10.17;;
11211;SDS011;5663;50.864;12.096;2022-09-13T07:48:45;8.37;;;6.83;;
11211;SDS011;5663;50.864;12.096;2022-09-13T07:51:18;10.77;;;7.07;;
11211;SDS011;5663;50.864;12.096;2022-09-13T07:57:46;7.97;;;7.03;;
11211;SDS011;5663;50.864;12.096;2022-09-13T08:07:22;8.50;;;7.53;;
11211;SDS011;5663;50.864;12.096;2022-09-13T08:10:02;9.87;;;7.80;;
11211;SDS011;5663;50.864;12.096;2022-09-13T08:13:32;7.53;;;6.77;;
11211;SDS011;5663;50.864;12.096;2022-09-13T08:16:32;10.90;;;7.73;;
11211;SDS011;5663;50.864;12.096;2022-09-13T08:19:37;8.33;;;7.30;;
11211;SDS011;5663;50.864;12.096;2022-09-13T08:29:12;7.77;;;6.97;;
11211;SDS011;5663;50.864;12.096;2022-09-13T08:32:10;8.53;;;7.73;;
11211;SDS011;5663;50.864;12.096;2022-09-13T08:34:55;8.50;;;7.63;;
11211;SDS011;5663;50.864;12.096;2022-09-13T08:42:26;8.47;;;6.60;;
11211;SDS011;5663;50.864;12.096;2022-09-13T08:48:29;8.57;;;7.67;;
11211;SDS011;5663;50.864;12.096;2022-09-13T09:01:55;10.30;;;6.70;;
11211;SDS011;5663;50.864;12.096;2022-09-13T09:05:09;7.00;;;6.27;;
11211;SDS011;5663;50.864;12.096;2022-09-13T09:08:23;6.73;;;6.03;;
11211;SDS011;5663;50.864;12.096;2022-09-13T09:14:43;9.03;;;6.33;;
11211;SDS011;5663;50.864;12.096;2022-09-13T09:21:39;7.30;;;5.77;;
11211;SDS011;5663;50.864;12.096;2022-09-13T09:35:04;7.83;;;5.47;;
11211;SDS011;5663;50.864;12.096;2022-09-13T09:38:03;6.33;;;5.60;;
11211;SDS011;5663;50.864;12.096;2022-09-13T09:41:32;5.70;;;5.20;;
11211;SDS011;5663;50.864;12.096;2022-09-13T09:44:49;7.80;;;5.20;;
11211;SDS011;5663;50.864;12.096;2022-09-13T10:51:59;4.90;;;3.97;;
11211;SDS011;5663;50.864;12.096;2022-09-13T10:58:44;7.78;;;4.60;;
11211;SDS011;5663;50.864;12.096;2022-09-13T11:01:47;5.13;;;3.55;;
11211;SDS011;5663;50.864;12.096;2022-09-13T11:12:30;18.60;;;4.18;;
11211;SDS011;5663;50.864;12.096;2022-09-13T11:15:56;7.47;;;3.47;;
11211;SDS011;5663;50.864;12.096;2022-09-13T11:40:34;3.30;;;2.40;;
11211;SDS011;5663;50.864;12.096;2022-09-13T11:51:13;5.60;;;2.90;;
11211;SDS011;5663;50.864;12.096;2022-09-13T11:58:02;10.93;;;2.95;;
11211;SDS011;5663;50.864;12.096;2022-09-13T12:00:52;3.42;;;2.55;;
11211;SDS011;5663;50.864;12.096;2022-09-13T12:03:52;23.63;;;3.15;;
11211;SDS011;5663;50.864;12.096;2022-09-13T12:06:53;52.97;;;5.22;;
11211;SDS011;5663;50.864;12.096;2022-09-13T12:10:06;7.93;;;3.15;;
11211;SDS011;5663;50.864;12.096;2022-09-13T12:16:05;6.88;;;3.10;;
11211;SDS011;5663;50.864;12.096;2022-09-13T12:18:56;2.90;;;2.67;;
11211;SDS011;5663;50.864;12.096;2022-09-13T12:23:10;5.35;;;2.40;;
11211;SDS011;5663;50.864;12.096;2022-09-13T12:25:38;3.10;;;2.60;;
11211;SDS011;5663;50.864;12.096;2022-09-13T12:28:44;5.90;;;2.50;;
11211;SDS011;5663;50.864;12.096;2022-09-13T12:31:48;3.63;;;2.42;;
11211;SDS011;5663;50.864;12.096;2022-09-13T12:34:27;4.88;;;2.78;;
11211;SDS011;5663;50.864;12.096;2022-09-13T12:44:13;2.95;;;2.70;;
11211;SDS011;5663;50.864;12.096;2022-09-13T12:47:15;4.90;;;2.65;;
11211;SDS011;5663;50.864;12.096;2022-09-13T12:50:43;17.83;;;3.80;;
11211;SDS011;5663;50.864;12.096;2022-09-13T12:57:56;4.03;;;2.60;;
11211;SDS011;5663;50.864;12.096;2022-09-13T13:00:42;14.77;;;3.60;;
11211;SDS011;5663;50.864;12.096;2022-09-13T13:03:32;7.75;;;2.83;;
11211;SDS011;5663;50.864;12.096;2022-09-13T13:06:17;11.35;;;3.20;;
11211;SDS011;5663;50.864;12.096;2022-09-13T13:09:06;11.40;;;2.92;;
11211;SDS011;5663;50.864;12.096;2022-09-13T13:12:03;2.65;;;2.20;;
11211;SDS011;5663;50.864;12.096;2022-09-13T13:14:44;2.70;;;2.50;;
11211;SDS011;5663;50.864;12.096;2022-09-13T13:17:43;79.18;;;6.90;;
11211;SDS011;5663;50.864;12.096;2022-09-13T13:23:32;14.98;;;2.90;;
11211;SDS011;5663;50.864;12.096;2022-09-13T13:26:11;2.40;;;2.20;;
11211;SDS011;5663;50.864;12.096;2022-09-13T13:29:11;2.30;;;2.10;;
11211;SDS011;5663;50.864;12.096;2022-09-13T13:34:39;5.20;;;2.67;;
11211;SDS011;5663;50.864;12.096;2022-09-13T13:40:18;5.43;;;2.70;;
11211;SDS011;5663;50.864;12.096;2022-09-13T13:43:28;5.43;;;2.15;;
11211;SDS011;5663;50.864;12.096;2022-09-13T13:46:41;7.72;;;2.30;;
11211;SDS011;5663;50.864;12.096;2022-09-13T13:53:16;2.00;;;1.80;;
11211;SDS011;5663;50.864;12.096;2022-09-13T14:00:11;4.45;;;1.80;;
11211;SDS011;5663;50.864;12.096;2022-09-13T14:03:09;4.95;;;1.90;;
11211;SDS011;5663;50.864;12.096;2022-09-13T14:13:35;11.95;;;2.53;;
11211;SDS011;5663;50.864;12.096;2022-09-13T14:16:31;2.22;;;1.90;;
11211;SDS011;5663;50.864;12.096;2022-09-13T14:19:24;13.23;;;2.40;;
11211;SDS011;5663;50.864;12.096;2022-09-13T14:22:05;7.07;;;2.13;;
11211;SDS011;5663;50.864;12.096;2022-09-13T14:25:20;2.00;;;1.80;;
11211;SDS011;5663;50.864;12.096;2022-09-13T14:28:02;2.00;;;1.80;;
11211;SDS011;5663;50.864;12.096;2022-09-13T14:30:41;15.07;;;2.38;;
11211;SDS011;5663;50.864;12.096;2022-09-13T14:33:26;1.95;;;1.77;;
11211;SDS011;5663;50.864;12.096;2022-09-13T14:36:03;2.50;;;2.08;;
11211;SDS011;5663;50.864;12.096;2022-09-13T14:38:46;7.43;;;2.30;;
11211;SDS011;5663;50.864;12.096;2022-09-13T14:41:58;2.58;;;1.70;;
11211;SDS011;5663;50.864;12.096;2022-09-13T14:44:37;5.20;;;1.92;;
11211;SDS011;5663;50.864;12.096;2022-09-13T14:47:49;6.35;;;2.00;;
11211;SDS011;5663;50.864;12.096;2022-09-13T14:50:26;4.22;;;2.05;;
11211;SDS011;5663;50.864;12.096;2022-09-13T14:53:04;4.50;;;2.03;;
11211;SDS011;5663;50.864;12.096;2022-09-13T14:56:04;2.22;;;2.00;;
11211;SDS011;5663;50.864;12.096;2022-09-13T14:58:44;2.92;;;2.15;;
11211;SDS011;5663;50.864;12.096;2022-09-13T15:01:25;2.15;;;1.98;;
11211;SDS011;5663;50.864;12.096;2022-09-13T15:04:04;2.08;;;1.95;;
11211;SDS011;5663;50.864;12.096;2022-09-13T15:07:06;3.85;;;1.88;;
11211;SDS011;5663;50.864;12.096;2022-09-13T15:09:47;7.93;;;2.17;;
11211;SDS011;5663;50.864;12.096;2022-09-13T15:12:32;2.92;;;2.30;;
11211;SDS011;5663;50.864;12.096;2022-09-13T15:17:57;2.20;;;2.00;;
11211;SDS011;5663;50.864;12.096;2022-09-13T15:20:46;6.05;;;2.05;;
11211;SDS011;5663;50.864;12.096;2022-09-13T15:44:36;2.63;;;2.15;;
11211;SDS011;5663;50.864;12.096;2022-09-13T15:47:16;5.38;;;2.38;;
11211;SDS011;5663;50.864;12.096;2022-09-13T15:49:52;3.67;;;2.22;;
11211;SDS011;5663;50.864;12.096;2022-09-13T15:53:08;11.15;;;2.33;;
11211;SDS011;5663;50.864;12.096;2022-09-13T15:59:28;3.28;;;1.95;;
11211;SDS011;5663;50.864;12.096;2022-09-13T16:02:14;2.30;;;2.10;;
11211;SDS011;5663;50.864;12.096;2022-09-13T16:05:06;2.78;;;1.80;;
11211;SDS011;5663;50.864;12.096;2022-09-13T16:07:40;2.17;;;1.90;;
11211;SDS011;5663;50.864;12.096;2022-09-13T16:10:17;3.13;;;1.92;;
11211;SDS011;5663;50.864;12.096;2022-09-13T16:12:50;2.63;;;1.88;;
11211;SDS011;5663;50.864;12.096;2022-09-13T16:18:16;3.78;;;1.90;;
11211;SDS011;5663;50.864;12.096;2022-09-13T16:20:47;7.10;;;2.40;;
11211;SDS011;5663;50.864;12.096;2022-09-13T16:34:47;2.33;;;1.98;;
11211;SDS011;5663;50.864;12.096;2022-09-13T16:41:30;12.38;;;2.30;;
11211;SDS011;5663;50.864;12.096;2022-09-13T16:47:55;3.40;;;1.95;;
11211;SDS011;5663;50.864;12.096;2022-09-13T16:57:22;3.97;;;2.47;;
11211;SDS011;5663;50.864;12.096;2022-09-13T16:59:55;19.45;;;3.65;;
11211;SDS011;5663;50.864;12.096;2022-09-13T17:02:41;27.10;;;3.33;;
11211;SDS011;5663;50.864;12.096;2022-09-13T17:05:18;6.43;;;2.50;;
11211;SDS011;5663;50.864;12.096;2022-09-13T17:07:58;4.78;;;2.50;;
11211;SDS011;5663;50.864;12.096;2022-09-13T17:10:33;10.73;;;2.42;;
11211;SDS011;5663;50.864;12.096;2022-09-13T17:13:12;2.45;;;2.25;;
11211;SDS011;5663;50.864;12.096;2022-09-13T17:15:42;5.50;;;2.63;;
11211;SDS011;5663;50.864;12.096;2022-09-13T17:18:18;8.75;;;2.63;;
11211;SDS011;5663;50.864;12.096;2022-09-13T17:20:48;3.88;;;2.10;;
11211;SDS011;5663;50.864;12.096;2022-09-13T17:31:14;3.03;;;2.40;;
11211;SDS011;5663;50.864;12.096;2022-09-13T17:45:24;2.90;;;2.50;;
11211;SDS011;5663;50.864;12.096;2022-09-13T17:47:58;4.38;;;2.75;;
11211;SDS011;5663;50.864;12.096;2022-09-13T17:50:28;3.28;;;2.97;;
11211;SDS011;5663;50.864;12.096;2022-09-13T17:53:03;3.38;;;2.25;;
11211;SDS011;5663;50.864;12.096;2022-09-13T17:55:33;4.38;;;2.97;;
11211;SDS011;5663;50.864;12.096;2022-09-13T17:58:04;4.90;;;3.13;;
11211;SDS011;5663;50.864;12.096;2022-09-13T18:00:44;3.17;;;2.85;;
11211;SDS011;5663;50.864;12.096;2022-09-13T18:03:19;4.90;;;3.03;;
11211;SDS011;5663;50.864;12.096;2022-09-13T18:05:54;3.67;;;2.78;;
11211;SDS011;5663;50.864;12.096;2022-09-13T18:08:24;3.05;;;2.67;;
11211;SDS011;5663;50.864;12.096;2022-09-13T18:10:59;4.43;;;3.08;;
11211;SDS011;5663;50.864;12.096;2022-09-13T18:13:55;4.47;;;3.20;;
11211;SDS011;5663;50.864;12.096;2022-09-13T18:16:46;4.00;;;2.45;;
11211;SDS011;5663;50.864;12.096;2022-09-13T18:19:37;4.25;;;2.33;;
11211;SDS011;5663;50.864;12.096;2022-09-13T18:22:09;3.88;;;3.50;;
11211;SDS011;5663;50.864;12.096;2022-09-13T18:24:59;5.18;;;3.13;;
11211;SDS011;5663;50.864;12.096;2022-09-13T18:27:55;4.97;;;3.67;;
11211;SDS011;5663;50.864;12.096;2022-09-13T18:30:30;8.52;;;3.35;;
11211;SDS011;5663;50.864;12.096;2022-09-13T18:33:14;6.28;;;3.45;;
11211;SDS011;5663;50.864;12.096;2022-09-13T18:36:08;8.23;;;3.85;;
11211;SDS011;5663;50.864;12.096;2022-09-13T18:38:49;6.35;;;3.17;;
11211;SDS011;5663;50.864;12.096;2022-09-13T18:41:28;5.72;;;3.90;;
11211;SDS011;5663;50.864;12.096;2022-09-13T18:44:03;4.80;;;3.28;;
11211;SDS011;5663;50.864;12.096;2022-09-13T18:46:48;3.83;;;3.08;;
11211;SDS011;5663;50.864;12.096;2022-09-13T18:53:47;4.47;;;3.80;;
11211;SDS011;5663;50.864;12.096;2022-09-13T19:04:13;8.00;;;4.40;;
11211;SDS011;5663;50.864;12.096;2022-09-13T19:36:33;6.10;;;5.50;;
11211;SDS011;5663;50.864;12.096;2022-09-13T19:43:18;8.37;;;5.67;;
11211;SDS011;5663;50.864;12.096;2022-09-13T19:45:57;7.40;;;5.57;;
11211;SDS011;5663;50.864;12.096;2022-09-13T19:52:30;6.23;;;5.63;;
11211;SDS011;5663;50.864;12.096;2022-09-13T19:55:07;6.63;;;5.37;;
11211;SDS011;5663;50.864;12.096;2022-09-13T19:58:08;6.90;;;5.53;;
11211;SDS011;5663;50.864;12.096;2022-09-13T20:00:51;6.63;;;5.47;;
11211;SDS011;5663;50.864;12.096;2022-09-13T20:03:51;5.67;;;5.00;;
11211;SDS011;5663;50.864;12.096;2022-09-13T20:07:12;7.07;;;5.40;;
11211;SDS011;5663;50.864;12.096;2022-09-13T20:09:51;6.90;;;5.40;;
11211;SDS011;5663;50.864;12.096;2022-09-13T20:12:37;5.40;;;4.90;;
11211;SDS011;5663;50.864;12.096;2022-09-13T20:15:31;6.17;;;5.30;;
11211;SDS011;5663;50.864;12.096;2022-09-13T20:18:14;6.50;;;5.23;;
11211;SDS011;5663;50.864;12.096;2022-09-13T20:21:01;5.30;;;4.77;;
11211;SDS011;5663;50.864;12.096;2022-09-13T20:27:36;7.53;;;4.77;;
11211;SDS011;5663;50.864;12.096;2022-09-13T20:30:23;5.93;;;4.80;;
11211;SDS011;5663;50.864;12.096;2022-09-13T20:33:22;5.90;;;4.93;;
11211;SDS011;5663;50.864;12.096;2022-09-13T20:36:13;5.90;;;5.07;;
11211;SDS011;5663;50.864;12.096;2022-09-13T20:39:02;5.73;;;5.23;;
11211;SDS011;5663;50.864;12.096;2022-09-13T20:41:46;6.43;;;4.70;;
11211;SDS011;5663;50.864;12.096;2022-09-13T20:44:44;7.87;;;5.30;;
11211;SDS011;5663;50.864;12.096;2022-09-13T20:47:38;9.40;;;5.87;;
11211;SDS011;5663;50.864;12.096;2022-09-13T20:50:17;5.83;;;4.57;;
11211;SDS011;5663;50.864;12.096;2022-09-13T20:53:07;5.10;;;4.60;;
11211;SDS011;5663;50.864;12.096;2022-09-13T20:56:16;9.73;;;5.20;;
11211;SDS011;5663;50.864;12.096;2022-09-13T20:59:52;7.47;;;4.63;;
11211;SDS011;5663;50.864;12.096;2022-09-13T21:02:50;7.13;;;4.70;;
11211;SDS011;5663;50.864;12.096;2022-09-13T21:05:30;7.40;;;5.60;;
11211;SDS011;5663;50.864;12.096;2022-09-13T21:08:21;6.60;;;4.83;;
11211;SDS011;5663;50.864;12.096;2022-09-13T21:11:22;5.30;;;4.80;;
11211;SDS011;5663;50.864;12.096;2022-09-13T21:13:56;5.27;;;4.77;;
11211;SDS011;5663;50.864;12.096;2022-09-13T21:16:34;9.03;;;4.60;;
11211;SDS011;5663;50.864;12.096;2022-09-13T21:19:11;5.30;;;4.63;;
11211;SDS011;5663;50.864;12.096;2022-09-13T21:21:41;7.07;;;5.10;;
11211;SDS011;5663;50.864;12.096;2022-09-13T21:24:17;5.20;;;4.63;;
11211;SDS011;5663;50.864;12.096;2022-09-13T21:26:49;6.70;;;4.47;;
11211;SDS011;5663;50.864;12.096;2022-09-13T21:29:19;5.40;;;4.13;;
11211;SDS011;5663;50.864;12.096;2022-09-13T21:31:51;5.20;;;4.70;;
11211;SDS011;5663;50.864;12.096;2022-09-13T21:34:21;4.80;;;4.30;;
11211;SDS011;5663;50.864;12.096;2022-09-13T21:36:57;5.80;;;4.10;;
11211;SDS011;5663;50.864;12.096;2022-09-13T21:39:30;6.07;;;4.87;;
11211;SDS011;5663;50.864;12.096;2022-09-13T21:42:04;5.80;;;4.63;;
11211;SDS011;5663;50.864;12.096;2022-09-13T21:44:36;12.40;;;5.53;;
11211;SDS011;5663;50.864;12.096;2022-09-13T21:47:18;8.43;;;4.30;;
11211;SDS011;5663;50.864;12.096;2022-09-13T21:49:47;7.30;;;4.70;;
11211;SDS011;5663;50.864;12.096;2022-09-13T21:52:19;10.10;;;5.30;;
11211;SDS011;5663;50.864;12.096;2022-09-13T21:55:06;4.40;;;4.00;;
11211;SDS011;5663;50.864;12.096;2022-09-13T21:57:44;6.30;;;4.53;;
11211;SDS011;5663;50.864;12.096;2022-09-13T22:00:21;6.10;;;5.20;;
11211;SDS011;5663;50.864;12.096;2022-09-13T22:02:57;6.50;;;4.60;;
11211;SDS011;5663;50.864;12.096;2022-09-13T22:05:27;5.37;;;4.73;;
11211;SDS011;5663;50.864;12.096;2022-09-13T22:08:05;5.43;;;4.40;;
11211;SDS011;5663;50.864;12.096;2022-09-13T22:10:49;5.40;;;4.90;;
11211;SDS011;5663;50.864;12.096;2022-09-13T22:13:31;5.30;;;4.80;;
11211;SDS011;5663;50.864;12.096;2022-09-13T22:16:11;4.90;;;4.50;;
11211;SDS011;5663;50.864;12.096;2022-09-13T22:18:56;5.73;;;4.83;;
11211;SDS011;5663;50.864;12.096;2022-09-13T22:21:32;6.87;;;4.60;;
11211;SDS011;5663;50.864;12.096;2022-09-13T22:24:03;8.00;;;4.50;;
11211;SDS011;5663;50.864;12.096;2022-09-13T22:26:51;6.87;;;4.90;;
11211;SDS011;5663;50.864;12.096;2022-09-13T22:29:25;6.80;;;4.83;;
11211;SDS011;5663;50.864;12.096;2022-09-13T22:32:07;5.50;;;5.00;;
11211;SDS011;5663;50.864;12.096;2022-09-13T22:34:45;6.90;;;4.97;;
11211;SDS011;5663;50.864;12.096;2022-09-13T22:37:31;5.07;;;4.57;;
11211;SDS011;5663;50.864;12.096;2022-09-13T22:40:01;7.70;;;5.10;;
11211;SDS011;5663;50.864;12.096;2022-09-13T22:46:54;7.93;;;5.00;;
11211;SDS011;5663;50.864;12.096;2022-09-13T22:49:40;7.27;;;4.90;;
11211;SDS011;5663;50.864;12.096;2022-09-13T22:52:14;4.97;;;4.47;;
11211;SDS011;5663;50.864;12.096;2022-09-13T22:54:45;6.40;;;4.40;;
11211;SDS011;5663;50.864;12.096;2022-09-13T22:57:21;6.90;;;4.70;;
11211;SDS011;5663;50.864;12.096;2022-09-13T22:59:54;7.10;;;4.40;;
11211;SDS011;5663;50.864;12.096;2022-09-13T23:02:26;4.40;;;4.00;;
11211;SDS011;5663;50.864;12.096;2022-09-13T23:04:57;7.33;;;4.90;;
11211;SDS011;5663;50.864;12.096;2022-09-13T23:07:28;4.60;;;4.20;;
11211;SDS011;5663;50.864;12.096;2022-09-13T23:09:57;8.67;;;4.63;;
11211;SDS011;5663;50.864;12.096;2022-09-13T23:12:28;6.30;;;5.03;;
11211;SDS011;5663;50.864;12.096;2022-09-13T23:14:58;6.03;;;4.37;;
11211;SDS011;5663;50.864;12.096;2022-09-13T23:17:29;7.07;;;4.20;;
11211;SDS011;5663;50.864;12.096;2022-09-13T23:19:59;4.67;;;4.27;;
11211;SDS011;5663;50.864;12.096;2022-09-13T23:22:34;9.40;;;5.00;;
11211;SDS011;5663;50.864;12.096;2022-09-13T23:25:06;5.60;;;4.83;;
11211;SDS011;5663;50.864;12.096;2022-09-13T23:27:36;7.43;;;4.50;;
11211;SDS011;5663;50.864;12.096;2022-09-13T23:30:06;5.87;;;4.20;;
11211;SDS011;5663;50.864;12.096;2022-09-13T23:32:47;4.90;;;4.30;;
11211;SDS011;5663;50.864;12.096;2022-09-13T23:35:27;5.40;;;4.27;;
11211;SDS011;5663;50.864;12.096;2022-09-13T23:37:57;5.47;;;4.13;;
11211;SDS011;5663;50.864;12.096;2022-09-13T23:40:25;4.73;;;4.33;;
11211;SDS011;5663;50.864;12.096;2022-09-13T23:42:55;5.23;;;4.73;;
11211;SDS011;5663;50.864;12.096;2022-09-13T23:45:27;5.07;;;4.57;;
11211;SDS011;5663;50.864;12.096;2022-09-13T23:47:58;6.60;;;4.80;;